Time;durP1;ratioP1;P1;durP2;ratioP2;P2;SDS_P1;SDS_P2;PMS_P1;PMS_P2;Temp;Humidity;BMP_temperature;BMP_pressure;BME280_temperature;BME280_humidity;BME280_pressure;Samples;Min_cycle;Max_cycle;Signal;HPM_P1;HPM_P2
2023/07/14 00:00:17;;;;;;;;;;;23.90;48.50;;;;;;4988392;28;19936;-78
2023/07/14 00:02:45;;;;;;;;;;;23.80;48.60;;;;;;4990210;28;19930;-78
2023/07/14 00:05:17;;;;;;;;;;;23.80;48.60;;;;;;4990573;28;20016;-77
2023/07/14 00:07:46;;;;;;;;;;;23.80;48.60;;;;;;4989750;28;19937;-78
2023/07/14 00:10:14;;;;;;;;;;;23.70;48.70;;;;;;4980900;28;20019;-78
2023/07/14 00:12:41;;;;;;;;;;;23.70;48.60;;;;;;4989275;28;19955;-78
2023/07/14 00:15:08;;;;;;;;;;;23.60;48.70;;;;;;4988645;28;19953;-78
2023/07/14 00:17:35;;;;;;;;;;;23.60;48.80;;;;;;4989253;28;20025;-79
2023/07/14 00:20:03;;;;;;;;;;;23.50;48.90;;;;;;4985776;28;19976;-77
2023/07/14 00:22:30;;;;;;;;;;;23.50;49.70;;;;;;4986791;28;19940;-78
2023/07/14 00:24:58;;;;;;;;;;;23.40;49.10;;;;;;4989620;28;19937;-78
2023/07/14 00:27:25;;;;;;;;;;;23.40;49.10;;;;;;5002598;28;19929;-77
2023/07/14 00:29:52;;;;;;;;;;;23.40;49.20;;;;;;4997717;28;19934;-77
2023/07/14 00:32:20;;;;;;;;;;;23.30;49.20;;;;;;4982197;28;20016;-78
2023/07/14 00:34:46;;;;;;;;;;;23.30;50.00;;;;;;4982207;28;19981;-78
2023/07/14 00:37:13;;;;;;;;;;;23.30;49.50;;;;;;4984727;28;19938;-78
2023/07/14 00:39:40;;;;;;;;;;;23.20;49.50;;;;;;4984199;28;19972;-78
2023/07/14 00:42:12;;;;;;;;;;;23.20;49.60;;;;;;4982927;28;19930;-78
2023/07/14 00:44:38;;;;;;;;;;;23.10;49.60;;;;;;4986496;28;19934;-78
2023/07/14 00:47:05;;;;;;;;;;;23.10;49.80;;;;;;4984954;28;19937;-79
2023/07/14 00:49:35;;;;;;;;;;;23.00;49.80;;;;;;4985057;28;20453;-78
2023/07/14 00:52:04;;;;;;;;;;;23.00;50.00;;;;;;4987476;28;19937;-78
2023/07/14 00:54:31;;;;;;;;;;;22.90;50.00;;;;;;4983791;28;19937;-77
2023/07/14 00:56:58;;;;;;;;;;;22.90;50.00;;;;;;4985125;28;19934;-78
2023/07/14 00:59:33;;;;;;;;;;;22.90;50.10;;;;;;4983697;28;20399;-77
2023/07/14 01:02:16;;;;;;;;;;;22.80;50.20;;;;;;4983035;28;19933;-78
2023/07/14 01:04:45;;;;;;;;;;;22.80;50.30;;;;;;4981137;28;19941;-78
2023/07/14 01:07:12;;;;;;;;;;;22.80;50.40;;;;;;4987380;28;20020;-78
2023/07/14 01:09:39;;;;;;;;;;;22.70;50.40;;;;;;4985436;28;20414;-78
2023/07/14 01:12:06;;;;;;;;;;;22.70;50.50;;;;;;4986239;28;19937;-78
2023/07/14 01:14:36;;;;;;;;;;;22.70;50.60;;;;;;4985561;28;19937;-78
2023/07/14 01:17:04;;;;;;;;;;;22.60;50.60;;;;;;4984627;28;19945;-78
2023/07/14 01:19:36;;;;;;;;;;;22.60;50.70;;;;;;4980659;28;20017;-78
2023/07/14 01:22:08;;;;;;;;;;;22.60;50.80;;;;;;4981958;28;19998;-78
2023/07/14 01:24:37;;;;;;;;;;;22.60;50.90;;;;;;4979783;28;19941;-78
2023/07/14 01:27:07;;;;;;;;;;;22.50;51.00;;;;;;4984281;28;20762;-78
2023/07/14 01:29:34;;;;;;;;;;;22.50;50.90;;;;;;4987011;28;19929;-78
2023/07/14 01:32:01;;;;;;;;;;;22.50;51.00;;;;;;4984349;28;19930;-78
2023/07/14 01:34:28;;;;;;;;;;;22.40;51.10;;;;;;4983552;28;20395;-78
2023/07/14 01:36:58;;;;;;;;;;;22.40;51.10;;;;;;4984253;28;19926;-78
2023/07/14 01:39:25;;;;;;;;;;;22.40;51.20;;;;;;4985255;28;20039;-77
2023/07/14 01:41:52;;;;;;;;;;;22.40;51.30;;;;;;4982795;28;19929;-78
2023/07/14 01:44:21;;;;;;;;;;;22.30;51.30;;;;;;4988505;28;19957;-78
2023/07/14 01:46:48;;;;;;;;;;;22.30;51.40;;;;;;4980963;28;20464;-78
2023/07/14 01:49:23;;;;;;;;;;;22.30;51.50;;;;;;4986163;28;19930;-78
2023/07/14 01:51:50;;;;;;;;;;;22.30;51.60;;;;;;4983933;28;19953;-77
2023/07/14 01:54:23;;;;;;;;;;;22.20;51.60;;;;;;4982462;28;19930;-78
2023/07/14 01:56:50;;;;;;;;;;;22.20;51.70;;;;;;4983846;28;19934;-78
2023/07/14 01:59:18;;;;;;;;;;;22.20;51.80;;;;;;4987757;28;20533;-78
2023/07/14 02:01:47;;;;;;;;;;;22.20;51.90;;;;;;4987174;28;19930;-78
2023/07/14 02:04:20;;;;;;;;;;;22.10;52.10;;;;;;4984282;28;19933;-78
2023/07/14 02:06:46;;;;;;;;;;;22.10;52.20;;;;;;4986760;28;19942;-78
2023/07/14 02:09:16;;;;;;;;;;;22.00;52.20;;;;;;4985839;28;19930;-78
2023/07/14 02:11:43;;;;;;;;;;;22.00;52.30;;;;;;4991685;28;19937;-78
2023/07/14 02:14:15;;;;;;;;;;;22.00;52.40;;;;;;4985557;28;20016;-79
2023/07/14 02:16:42;;;;;;;;;;;21.90;52.30;;;;;;4987843;28;19952;-78
2023/07/14 02:19:15;;;;;;;;;;;21.90;52.50;;;;;;4984840;28;20335;-78
2023/07/14 02:21:43;;;;;;;;;;;21.80;52.50;;;;;;4988844;28;19930;-78
2023/07/14 02:24:14;;;;;;;;;;;21.80;52.50;;;;;;4988269;28;19933;-78
2023/07/14 02:26:41;;;;;;;;;;;21.80;52.60;;;;;;4988029;28;19937;-77
2023/07/14 02:29:10;;;;;;;;;;;21.80;52.70;;;;;;4987305;28;20391;-78
2023/07/14 02:31:39;;;;;;;;;;;21.70;52.80;;;;;;4981287;28;20009;-78
2023/07/14 02:34:10;;;;;;;;;;;21.70;52.90;;;;;;4987388;28;19937;-77
2023/07/14 02:36:42;;;;;;;;;;;21.70;53.00;;;;;;4986568;28;19930;-79
2023/07/14 02:39:09;;;;;;;;;;;21.60;53.00;;;;;;4988417;28;19956;-78
2023/07/14 02:41:38;;;;;;;;;;;21.60;53.10;;;;;;4985344;28;19929;-77
2023/07/14 02:44:06;;;;;;;;;;;21.60;53.10;;;;;;4987211;28;19936;-78
2023/07/14 02:46:37;;;;;;;;;;;21.50;53.10;;;;;;4987582;28;19936;-78
2023/07/14 02:49:04;;;;;;;;;;;21.50;53.30;;;;;;4985937;28;19930;-78
2023/07/14 02:51:30;;;;;;;;;;;21.50;53.30;;;;;;4983885;28;19929;-77
2023/07/14 02:53:58;;;;;;;;;;;21.40;53.30;;;;;;4989839;28;19940;-78
2023/07/14 02:56:25;;;;;;;;;;;21.50;53.40;;;;;;4989317;28;19930;-77
2023/07/14 02:58:52;;;;;;;;;;;21.40;53.50;;;;;;4987516;28;19942;-78
2023/07/14 03:01:19;;;;;;;;;;;21.40;53.60;;;;;;4985828;28;19929;-78
2023/07/14 03:03:47;;;;;;;;;;;21.30;53.60;;;;;;4988417;28;19929;-77
2023/07/14 03:06:15;;;;;;;;;;;21.30;53.70;;;;;;4985946;28;19965;-77
2023/07/14 03:08:41;;;;;;;;;;;21.30;53.80;;;;;;4980725;28;19930;-77
2023/07/14 03:11:09;;;;;;;;;;;21.30;53.80;;;;;;4987820;28;19929;-77
2023/07/14 03:13:36;;;;;;;;;;;21.20;53.90;;;;;;4987357;28;19933;-77
2023/07/14 03:16:03;;;;;;;;;;;21.20;54.00;;;;;;4985347;28;19933;-78
2023/07/14 03:18:30;;;;;;;;;;;21.10;54.00;;;;;;4988074;28;20048;-78
2023/07/14 03:20:57;;;;;;;;;;;21.10;54.00;;;;;;4984511;28;19936;-77
2023/07/14 03:23:23;;;;;;;;;;;21.10;54.00;;;;;;4987857;28;19929;-78
2023/07/14 03:25:53;;;;;;;;;;;21.10;54.10;;;;;;4981999;28;19938;-78
2023/07/14 03:28:21;;;;;;;;;;;21.10;54.10;;;;;;4986444;28;19934;-78
2023/07/14 03:30:48;;;;;;;;;;;21.00;54.20;;;;;;4986840;28;20009;-78
2023/07/14 03:33:14;;;;;;;;;;;21.00;54.20;;;;;;4987983;28;20012;-77
2023/07/14 03:35:41;;;;;;;;;;;20.90;54.20;;;;;;4984394;28;19936;-77
2023/07/14 03:38:07;;;;;;;;;;;20.90;54.20;;;;;;4987379;28;19934;-78
2023/07/14 03:40:34;;;;;;;;;;;20.90;54.30;;;;;;4988008;28;19933;-77
2023/07/14 03:43:03;;;;;;;;;;;20.90;54.40;;;;;;4984081;28;19930;-77
2023/07/14 03:45:31;;;;;;;;;;;20.90;54.50;;;;;;4985715;28;20315;-77
2023/07/14 03:47:57;;;;;;;;;;;20.80;54.40;;;;;;4983423;28;19985;-78
2023/07/14 03:50:24;;;;;;;;;;;20.80;54.50;;;;;;4985663;28;19934;-78
2023/07/14 03:52:50;;;;;;;;;;;20.80;54.60;;;;;;4987388;28;19940;-77
2023/07/14 03:55:17;;;;;;;;;;;20.70;54.60;;;;;;4989250;28;19941;-78
2023/07/14 03:57:43;;;;;;;;;;;20.70;54.70;;;;;;4990265;28;19937;-77
2023/07/14 04:00:14;;;;;;;;;;;20.70;54.60;;;;;;4984629;28;19933;-78
2023/07/14 04:02:42;;;;;;;;;;;20.70;54.70;;;;;;4986809;28;19976;-78
2023/07/14 04:05:09;;;;;;;;;;;20.70;54.70;;;;;;4989178;28;20012;-78
2023/07/14 04:07:36;;;;;;;;;;;20.70;54.80;;;;;;4985627;28;19930;-77
2023/07/14 04:10:04;;;;;;;;;;;20.60;54.80;;;;;;4983930;28;19980;-78
2023/07/14 04:12:31;;;;;;;;;;;20.60;54.80;;;;;;4982699;28;20354;-78
2023/07/14 04:14:58;;;;;;;;;;;20.60;54.90;;;;;;4986613;28;19933;-77
2023/07/14 04:17:24;;;;;;;;;;;20.60;55.00;;;;;;4983204;28;19929;-77
2023/07/14 04:19:52;;;;;;;;;;;20.60;55.00;;;;;;4983401;28;19940;-78
2023/07/14 04:22:19;;;;;;;;;;;20.60;55.10;;;;;;4983284;28;19996;-78
2023/07/14 04:24:46;;;;;;;;;;;20.60;55.10;;;;;;4983589;28;20381;-78
2023/07/14 04:27:13;;;;;;;;;;;20.60;55.20;;;;;;4985392;28;20563;-78
2023/07/14 04:29:40;;;;;;;;;;;20.50;55.10;;;;;;4986874;28;20026;-78
2023/07/14 04:32:07;;;;;;;;;;;20.50;55.20;;;;;;4984426;28;19930;-77
2023/07/14 04:34:33;;;;;;;;;;;20.50;55.30;;;;;;4982635;28;20426;-78
2023/07/14 04:37:02;;;;;;;;;;;20.50;55.30;;;;;;4983505;28;20181;-78
2023/07/14 04:39:28;;;;;;;;;;;20.50;55.40;;;;;;4984864;28;19968;-78
2023/07/14 04:41:55;;;;;;;;;;;20.50;55.50;;;;;;4984291;28;20764;-77
2023/07/14 04:44:21;;;;;;;;;;;20.50;55.60;;;;;;4983679;28;20495;-77
2023/07/14 04:46:48;;;;;;;;;;;20.40;55.60;;;;;;4981495;28;20681;-77
2023/07/14 04:49:16;;;;;;;;;;;20.50;55.80;;;;;;4981760;28;19964;-77
2023/07/14 04:51:42;;;;;;;;;;;20.40;55.80;;;;;;4982573;28;19929;-77
2023/07/14 04:54:11;;;;;;;;;;;20.40;55.90;;;;;;4981166;28;20569;-77
2023/07/14 04:56:38;;;;;;;;;;;20.40;55.90;;;;;;4984705;28;19937;-77
2023/07/14 04:59:05;;;;;;;;;;;20.40;56.00;;;;;;4990069;28;20008;-77
2023/07/14 05:01:32;;;;;;;;;;;20.40;56.10;;;;;;4982518;28;19930;-77
2023/07/14 05:03:58;;;;;;;;;;;20.30;56.20;;;;;;4984716;28;19937;-77
2023/07/14 05:06:25;;;;;;;;;;;20.40;56.20;;;;;;4984930;28;19976;-76
2023/07/14 05:08:51;;;;;;;;;;;20.30;56.20;;;;;;4983041;28;19930;-77
2023/07/14 05:11:19;;;;;;;;;;;20.30;56.30;;;;;;4982790;28;19937;-77
2023/07/14 05:13:46;;;;;;;;;;;20.30;56.40;;;;;;4983722;28;19934;-77
2023/07/14 05:16:12;;;;;;;;;;;20.30;56.40;;;;;;4982946;28;19933;-77
2023/07/14 05:18:39;;;;;;;;;;;20.30;56.50;;;;;;4978733;28;19997;-77
2023/07/14 05:21:06;;;;;;;;;;;20.30;56.50;;;;;;4981690;28;19970;-77
2023/07/14 05:23:33;;;;;;;;;;;20.30;56.60;;;;;;4983636;28;19940;-77
2023/07/14 05:25:59;;;;;;;;;;;20.30;56.60;;;;;;4981945;28;19930;-77
2023/07/14 05:28:28;;;;;;;;;;;20.30;56.60;;;;;;4984381;28;20515;-77
2023/07/14 05:30:54;;;;;;;;;;;20.30;56.60;;;;;;4981465;28;19934;-77
2023/07/14 05:33:21;;;;;;;;;;;20.30;56.70;;;;;;4983278;28;19941;-76
2023/07/14 05:35:48;;;;;;;;;;;20.30;59.30;;;;;;4989331;28;19930;-78
2023/07/14 05:38:15;;;;;;;;;;;20.20;59.40;;;;;;4990003;28;19929;-78
2023/07/14 05:40:41;;;;;;;;;;;20.10;59.50;;;;;;4990982;28;19934;-78
2023/07/14 05:43:08;;;;;;;;;;;20.10;59.40;;;;;;4990597;28;20321;-78
2023/07/14 05:45:36;;;;;;;;;;;20.00;59.30;;;;;;4985911;28;19960;-78
2023/07/14 05:48:03;;;;;;;;;;;20.10;59.30;;;;;;4988931;28;19929;-78
2023/07/14 05:50:29;;;;;;;;;;;20.00;59.10;;;;;;4983949;28;19937;-78
2023/07/14 05:52:56;;;;;;;;;;;20.00;59.00;;;;;;4988849;28;19953;-77
2023/07/14 05:55:22;;;;;;;;;;;20.10;58.90;;;;;;4986253;28;20351;-78
2023/07/14 05:57:49;;;;;;;;;;;20.10;58.80;;;;;;4989778;28;19941;-78
2023/07/14 06:00:16;;;;;;;;;;;20.10;58.60;;;;;;4984893;28;19969;-76
2023/07/14 06:02:46;;;;;;;;;;;20.10;58.60;;;;;;4988195;28;20757;-78
2023/07/14 06:05:13;;;;;;;;;;;20.10;58.50;;;;;;4987834;28;19961;-77
2023/07/14 06:07:41;;;;;;;;;;;20.10;58.40;;;;;;4987978;28;19929;-77
2023/07/14 06:10:08;;;;;;;;;;;20.10;58.30;;;;;;4987211;28;19933;-78
2023/07/14 06:12:35;;;;;;;;;;;20.10;58.30;;;;;;4988417;28;19929;-78
2023/07/14 06:15:01;;;;;;;;;;;20.20;58.30;;;;;;4986845;28;19941;-77
2023/07/14 06:17:28;;;;;;;;;;;20.20;58.30;;;;;;4982775;28;20348;-77
2023/07/14 06:19:56;;;;;;;;;;;20.20;58.30;;;;;;4982678;28;19936;-76
2023/07/14 06:22:23;;;;;;;;;;;20.20;59.20;;;;;;4983451;28;19930;-77
2023/07/14 06:24:50;;;;;;;;;;;20.30;59.50;;;;;;4983478;28;19937;-77
2023/07/14 06:27:16;;;;;;;;;;;20.30;59.70;;;;;;4981650;28;19930;-76
2023/07/14 06:29:43;;;;;;;;;;;20.30;59.50;;;;;;4986522;28;19941;-76
2023/07/14 06:32:10;;;;;;;;;;;20.40;59.20;;;;;;4984087;28;19969;-76
2023/07/14 06:34:36;;;;;;;;;;;20.50;59.10;;;;;;4983410;28;19929;-77
2023/07/14 06:37:05;;;;;;;;;;;20.50;58.90;;;;;;4985205;28;19930;-77
2023/07/14 06:39:31;;;;;;;;;;;20.50;58.70;;;;;;4983354;28;19934;-76
2023/07/14 06:41:58;;;;;;;;;;;20.50;58.50;;;;;;4985489;28;20368;-76
2023/07/14 06:44:25;;;;;;;;;;;20.60;58.40;;;;;;4982750;28;19936;-77
2023/07/14 06:46:51;;;;;;;;;;;20.60;58.90;;;;;;4982806;28;19933;-78
2023/07/14 06:49:18;;;;;;;;;;;20.60;58.20;;;;;;4984947;28;20319;-76
2023/07/14 06:51:44;;;;;;;;;;;20.70;58.10;;;;;;4982417;28;19956;-75
2023/07/14 06:54:12;;;;;;;;;;;20.80;58.00;;;;;;4978850;28;19933;-76
2023/07/14 06:56:39;;;;;;;;;;;20.80;57.90;;;;;;4984907;28;19937;-76
2023/07/14 06:59:06;;;;;;;;;;;20.90;57.90;;;;;;4981329;28;19941;-76
2023/07/14 07:01:33;;;;;;;;;;;20.90;57.90;;;;;;4978519;28;19930;-75
2023/07/14 07:04:00;;;;;;;;;;;20.90;57.80;;;;;;4984314;28;20458;-76
2023/07/14 07:06:26;;;;;;;;;;;21.00;57.70;;;;;;4983657;28;19929;-75
2023/07/14 07:08:53;;;;;;;;;;;21.00;57.60;;;;;;4984723;28;19933;-78
2023/07/14 07:11:21;;;;;;;;;;;21.10;57.60;;;;;;4984267;28;20474;-78
2023/07/14 07:13:48;;;;;;;;;;;21.10;57.50;;;;;;4985291;28;20419;-77
2023/07/14 07:16:15;;;;;;;;;;;21.10;57.40;;;;;;4979879;28;19930;-77
2023/07/14 07:18:41;;;;;;;;;;;21.10;57.30;;;;;;4975588;28;19936;-76
2023/07/14 07:21:12;;;;;;;;;;;21.20;57.30;;;;;;4977109;28;19934;-76
2023/07/14 07:23:38;;;;;;;;;;;21.20;57.10;;;;;;4982785;28;20288;-78
2023/07/14 07:26:06;;;;;;;;;;;21.20;57.10;;;;;;4979940;28;19934;-76
2023/07/14 07:28:34;;;;;;;;;;;21.30;57.00;;;;;;4984478;28;20017;-76
2023/07/14 07:31:09;;;;;;;;;;;21.30;56.90;;;;;;4980250;28;19936;-76
2023/07/14 07:33:37;;;;;;;;;;;21.30;56.90;;;;;;4977040;28;19934;-75
2023/07/14 07:36:14;;;;;;;;;;;21.30;56.80;;;;;;4980338;28;20012;-75
2023/07/14 07:38:42;;;;;;;;;;;21.30;56.80;;;;;;4978912;28;19937;-76
2023/07/14 07:41:09;;;;;;;;;;;21.40;56.70;;;;;;4983560;28;19929;-76
2023/07/14 07:43:37;;;;;;;;;;;21.40;56.70;;;;;;4982883;28;21618;-75
2023/07/14 07:46:04;;;;;;;;;;;21.40;56.70;;;;;;4983167;28;19926;-73
2023/07/14 07:48:30;;;;;;;;;;;21.40;56.70;;;;;;4978875;28;20445;-76
2023/07/14 07:50:57;;;;;;;;;;;21.50;56.70;;;;;;4982294;28;19936;-76
2023/07/14 07:53:23;;;;;;;;;;;21.50;56.60;;;;;;4982645;28;19930;-76
2023/07/14 07:55:53;;;;;;;;;;;21.50;56.60;;;;;;4980919;28;19934;-75
2023/07/14 07:58:24;;;;;;;;;;;21.60;56.50;;;;;;4979353;28;19930;-76
2023/07/14 08:00:53;;;;;;;;;;;21.60;56.50;;;;;;4974179;28;20481;-77
2023/07/14 08:03:19;;;;;;;;;;;21.60;56.50;;;;;;4980380;28;19961;-76
2023/07/14 08:05:46;;;;;;;;;;;21.70;56.50;;;;;;4980153;28;19952;-76
2023/07/14 08:08:12;;;;;;;;;;;21.70;56.50;;;;;;4981067;28;19938;-76
2023/07/14 08:10:42;;;;;;;;;;;21.70;56.40;;;;;;4981211;28;19929;-76
2023/07/14 08:13:10;;;;;;;;;;;21.80;56.40;;;;;;4982115;28;20027;-76
2023/07/14 08:15:38;;;;;;;;;;;21.80;56.20;;;;;;4981043;28;19930;-76
2023/07/14 08:18:07;;;;;;;;;;;21.80;56.00;;;;;;4975176;28;19930;-75
2023/07/14 08:20:34;;;;;;;;;;;21.90;55.90;;;;;;4981217;28;20410;-76
2023/07/14 08:23:02;;;;;;;;;;;21.90;55.70;;;;;;4979228;28;20414;-76
2023/07/14 08:25:28;;;;;;;;;;;21.90;55.50;;;;;;4981725;28;19929;-76
2023/07/14 08:27:55;;;;;;;;;;;22.00;55.40;;;;;;4974143;28;19965;-77
2023/07/14 08:30:22;;;;;;;;;;;22.00;55.30;;;;;;4982303;28;19991;-76
2023/07/14 08:32:49;;;;;;;;;;;22.10;55.30;;;;;;4976606;28;19926;-77
2023/07/14 08:35:17;;;;;;;;;;;22.10;55.20;;;;;;4983230;28;19930;-76
2023/07/14 08:37:43;;;;;;;;;;;22.10;55.10;;;;;;4978557;28;19981;-77
2023/07/14 08:40:12;;;;;;;;;;;22.20;55.10;;;;;;4980178;28;20427;-77
2023/07/14 08:42:44;;;;;;;;;;;22.20;55.00;;;;;;4977656;28;20396;-75
2023/07/14 08:45:30;;;;;;;;;;;22.30;54.90;;;;;;4976829;28;19933;-76
2023/07/14 08:48:00;;;;;;;;;;;22.30;54.80;;;;;;4981591;28;19930;-76
2023/07/14 08:50:29;;;;;;;;;;;22.30;54.60;;;;;;4980074;28;19930;-75
2023/07/14 08:52:57;;;;;;;;;;;22.40;54.60;;;;;;4984750;28;20380;-76
2023/07/14 08:55:25;;;;;;;;;;;22.40;54.50;;;;;;4979755;28;19930;-75
2023/07/14 08:57:54;;;;;;;;;;;22.50;54.50;;;;;;4977178;28;20411;-78
2023/07/14 09:00:24;;;;;;;;;;;22.50;54.40;;;;;;4979921;28;19930;-79
2023/07/14 09:02:56;;;;;;;;;;;22.60;54.30;;;;;;4985427;28;19953;-80
2023/07/14 09:05:24;;;;;;;;;;;22.60;54.20;;;;;;4985724;28;19929;-79
2023/07/14 09:07:53;;;;;;;;;;;22.60;54.10;;;;;;4987292;28;19936;-76
2023/07/14 09:10:22;;;;;;;;;;;22.70;54.10;;;;;;4986436;28;20303;-76
2023/07/14 09:12:52;;;;;;;;;;;22.70;53.90;;;;;;4981082;28;19926;-77
2023/07/14 09:15:21;;;;;;;;;;;22.70;53.90;;;;;;4984593;28;20016;-79
2023/07/14 09:17:49;;;;;;;;;;;22.80;53.80;;;;;;5005496;28;20015;-79
2023/07/14 09:20:24;;;;;;;;;;;22.80;53.70;;;;;;5004830;28;19929;-78
2023/07/14 09:22:58;;;;;;;;;;;22.90;53.60;;;;;;4999978;28;20020;-78
2023/07/14 09:25:27;;;;;;;;;;;22.90;53.50;;;;;;5005198;28;19929;-79
2023/07/14 09:27:54;;;;;;;;;;;22.90;53.30;;;;;;5007420;28;19945;-78
2023/07/14 09:30:23;;;;;;;;;;;23.00;53.20;;;;;;5005698;28;19929;-78
2023/07/14 09:32:52;;;;;;;;;;;23.00;53.00;;;;;;4977632;28;20020;-79
2023/07/14 09:35:20;;;;;;;;;;;23.10;53.00;;;;;;4994408;28;20545;-77
2023/07/14 09:37:48;;;;;;;;;;;23.10;52.70;;;;;;4990022;28;19933;-79
2023/07/14 09:40:19;;;;;;;;;;;23.20;52.70;;;;;;4994746;28;19933;-79
2023/07/14 09:42:47;;;;;;;;;;;23.30;52.50;;;;;;4995459;28;19934;-78
2023/07/14 09:45:15;;;;;;;;;;;23.30;52.40;;;;;;4990446;28;20686;-78
2023/07/14 09:47:42;;;;;;;;;;;23.40;52.40;;;;;;4988097;28;20021;-77
2023/07/14 09:50:12;;;;;;;;;;;23.40;52.40;;;;;;4982570;28;20488;-79
2023/07/14 09:52:48;;;;;;;;;;;23.50;52.30;;;;;;4991890;28;19930;-79
2023/07/14 09:55:15;;;;;;;;;;;23.50;52.20;;;;;;4982397;28;19936;-78
2023/07/14 09:57:43;;;;;;;;;;;23.50;52.00;;;;;;4991603;28;20234;-79
2023/07/14 10:00:17;;;;;;;;;;;23.60;52.00;;;;;;4987318;28;19929;-78
2023/07/14 10:02:44;;;;;;;;;;;23.70;51.90;;;;;;4986378;28;19980;-79
2023/07/14 10:05:34;;;;;;;;;;;23.70;51.80;;;;;;4983673;28;19926;-78
2023/07/14 10:08:00;;;;;;;;;;;23.70;51.60;;;;;;4992924;28;19933;-78
2023/07/14 10:10:27;;;;;;;;;;;23.80;51.30;;;;;;4988041;28;20410;-79
2023/07/14 10:12:55;;;;;;;;;;;23.90;51.00;;;;;;4984443;28;20465;-78
2023/07/14 10:15:30;;;;;;;;;;;23.90;51.00;;;;;;4990340;28;19937;-79
2023/07/14 10:17:58;;;;;;;;;;;24.00;50.90;;;;;;5007208;28;19975;-79
2023/07/14 10:20:25;;;;;;;;;;;24.00;50.80;;;;;;5004655;28;19929;-78
2023/07/14 10:22:55;;;;;;;;;;;24.10;50.60;;;;;;5008300;28;20429;-78
2023/07/14 10:25:22;;;;;;;;;;;24.10;50.60;;;;;;5007649;28;19936;-78
2023/07/14 10:27:56;;;;;;;;;;;24.20;50.50;;;;;;5012172;28;19926;-79
2023/07/14 10:30:31;;;;;;;;;;;24.20;50.40;;;;;;5011336;28;20350;-78
2023/07/14 10:32:59;;;;;;;;;;;24.30;50.30;;;;;;5008996;28;19930;-78
2023/07/14 10:35:27;;;;;;;;;;;24.30;50.10;;;;;;5005609;28;19930;-79
2023/07/14 10:37:58;;;;;;;;;;;24.40;49.90;;;;;;5006857;28;19929;-79
2023/07/14 10:40:26;;;;;;;;;;;24.40;49.80;;;;;;5008873;28;19935;-78
2023/07/14 10:42:56;;;;;;;;;;;24.50;49.80;;;;;;5004123;28;19930;-78
2023/07/14 10:45:25;;;;;;;;;;;24.50;49.70;;;;;;5005967;28;19925;-79
2023/07/14 10:47:53;;;;;;;;;;;24.50;49.60;;;;;;4990620;28;19930;-77
2023/07/14 10:50:21;;;;;;;;;;;24.60;49.40;;;;;;4988717;28;20651;-80
2023/07/14 10:52:50;;;;;;;;;;;24.70;49.30;;;;;;4986155;28;19992;-79
2023/07/14 10:55:18;;;;;;;;;;;24.70;48.80;;;;;;4989650;28;19934;-78
2023/07/14 10:57:47;;;;;;;;;;;24.80;48.80;;;;;;4991444;28;19956;-79
2023/07/14 11:00:21;;;;;;;;;;;24.90;48.80;;;;;;4989590;28;19930;-79
2023/07/14 11:02:53;;;;;;;;;;;25.00;48.70;;;;;;5008546;28;19930;-79
2023/07/14 11:05:22;;;;;;;;;;;25.00;48.40;;;;;;5012447;28;19933;-80
2023/07/14 11:07:50;;;;;;;;;;;25.10;48.10;;;;;;5006052;28;20040;-78
2023/07/14 11:10:22;;;;;;;;;;;25.10;47.90;;;;;;5013888;28;19952;-79
2023/07/14 11:12:50;;;;;;;;;;;25.20;48.00;;;;;;5009386;28;19936;-79
2023/07/14 11:15:22;;;;;;;;;;;25.20;47.80;;;;;;5007384;28;19937;-79
2023/07/14 11:17:55;;;;;;;;;;;25.30;47.70;;;;;;5003328;28;20472;-79
2023/07/14 11:20:27;;;;;;;;;;;25.40;47.70;;;;;;5008547;28;20056;-78
2023/07/14 11:23:01;;;;;;;;;;;25.40;47.70;;;;;;5003975;28;20744;-78
2023/07/14 11:25:32;;;;;;;;;;;25.40;47.70;;;;;;5002443;28;19929;-79
2023/07/14 11:28:00;;;;;;;;;;;25.50;47.40;;;;;;5000490;28;19936;-79
2023/07/14 11:30:29;;;;;;;;;;;25.50;47.30;;;;;;5001128;28;19937;-80
2023/07/14 11:33:02;;;;;;;;;;;25.50;47.30;;;;;;4988650;28;19936;-78
2023/07/14 11:35:30;;;;;;;;;;;25.60;47.20;;;;;;4987479;28;19937;-79
2023/07/14 11:38:03;;;;;;;;;;;25.60;46.90;;;;;;4991269;28;19929;-79
2023/07/14 11:40:33;;;;;;;;;;;25.60;46.90;;;;;;4989494;28;19952;-79
2023/07/14 11:43:00;;;;;;;;;;;25.70;47.00;;;;;;4985039;28;20422;-79
2023/07/14 11:45:28;;;;;;;;;;;25.70;46.70;;;;;;4988462;28;20391;-79
2023/07/14 11:47:56;;;;;;;;;;;25.80;46.60;;;;;;4991585;28;20371;-80
2023/07/14 11:50:26;;;;;;;;;;;25.80;46.30;;;;;;4992827;28;19937;-78
2023/07/14 11:53:01;;;;;;;;;;;25.90;47.10;;;;;;4992750;28;20005;-79
2023/07/14 11:55:28;;;;;;;;;;;25.90;46.50;;;;;;4997109;28;20411;-79
2023/07/14 11:58:05;;;;;;;;;;;26.00;46.50;;;;;;4989621;28;19964;-79
2023/07/14 12:00:36;;;;;;;;;;;26.00;46.50;;;;;;4989922;28;20024;-80
2023/07/14 12:03:04;;;;;;;;;;;26.00;46.50;;;;;;5008334;28;19930;-79
2023/07/14 12:05:34;;;;;;;;;;;26.10;46.50;;;;;;5012190;28;20398;-79
2023/07/14 12:08:19;;;;;;;;;;;26.10;46.60;;;;;;5007411;28;20044;-79
2023/07/14 12:10:46;;;;;;;;;;;26.20;46.70;;;;;;5008915;28;19964;-80
2023/07/14 12:13:21;;;;;;;;;;;26.20;46.40;;;;;;5010832;28;19968;-79
2023/07/14 12:15:48;;;;;;;;;;;26.20;46.30;;;;;;5002689;28;20371;-79
2023/07/14 12:18:18;;;;;;;;;;;26.30;46.10;;;;;;5008069;28;19936;-78
2023/07/14 12:20:46;;;;;;;;;;;26.30;46.10;;;;;;5007147;28;19933;-80
2023/07/14 12:23:16;;;;;;;;;;;26.40;45.90;;;;;;5004408;28;19933;-79
2023/07/14 12:25:44;;;;;;;;;;;26.40;45.70;;;;;;4995717;28;19930;-79
2023/07/14 12:28:16;;;;;;;;;;;26.50;45.70;;;;;;5007517;28;19929;-79
2023/07/14 12:30:46;;;;;;;;;;;26.50;45.80;;;;;;5005346;28;19979;-78
2023/07/14 12:33:13;;;;;;;;;;;26.60;45.50;;;;;;5007018;28;19937;-77
2023/07/14 12:35:40;;;;;;;;;;;26.60;45.10;;;;;;5003711;28;19929;-79
2023/07/14 12:38:13;;;;;;;;;;;26.70;44.90;;;;;;5007563;28;19933;-79
2023/07/14 12:40:41;;;;;;;;;;;26.80;44.50;;;;;;5007525;28;19929;-80
2023/07/14 12:43:09;;;;;;;;;;;26.90;43.70;;;;;;5005930;28;20407;-80
2023/07/14 12:45:36;;;;;;;;;;;27.00;43.60;;;;;;5002462;28;19933;-79
2023/07/14 12:48:03;;;;;;;;;;;27.10;43.60;;;;;;4985413;28;19930;-79
2023/07/14 12:50:30;;;;;;;;;;;27.10;43.20;;;;;;4985495;28;20392;-80
2023/07/14 12:52:57;;;;;;;;;;;27.20;43.30;;;;;;4988382;28;20016;-80
2023/07/14 12:55:30;;;;;;;;;;;27.20;43.30;;;;;;4988509;28;19937;-79
2023/07/14 12:57:56;;;;;;;;;;;27.30;43.10;;;;;;4988942;28;19929;-80
2023/07/14 13:00:24;;;;;;;;;;;27.40;43.20;;;;;;4988365;28;19941;-79
2023/07/14 13:02:51;;;;;;;;;;;27.40;43.40;;;;;;4986503;28;19937;-77
2023/07/14 13:05:18;;;;;;;;;;;27.50;43.20;;;;;;4983894;28;20358;-77
2023/07/14 13:07:46;;;;;;;;;;;27.60;43.00;;;;;;4984797;28;19933;-77
2023/07/14 13:10:17;;;;;;;;;;;27.60;43.20;;;;;;4986373;28;19930;-77
2023/07/14 13:12:45;;;;;;;;;;;27.60;43.00;;;;;;4985833;28;20671;-77
2023/07/14 13:15:13;;;;;;;;;;;27.60;43.00;;;;;;4986564;28;20012;-77
2023/07/14 13:17:41;;;;;;;;;;;27.70;43.80;;;;;;5003980;28;19945;-77
2023/07/14 13:20:08;;;;;;;;;;;27.70;43.20;;;;;;5005879;28;19929;-77
2023/07/14 13:22:36;;;;;;;;;;;27.70;43.20;;;;;;4999434;28;20299;-77
2023/07/14 13:25:03;;;;;;;;;;;27.70;42.70;;;;;;5002745;28;19935;-78
2023/07/14 13:27:30;;;;;;;;;;;27.70;42.00;;;;;;5006554;28;19964;-78
2023/07/14 13:29:59;;;;;;;;;;;27.80;41.80;;;;;;5000503;28;20032;-77
2023/07/14 13:32:26;;;;;;;;;;;27.80;42.10;;;;;;5002610;28;19968;-78
2023/07/14 13:34:54;;;;;;;;;;;27.90;42.30;;;;;;5000192;28;19973;-77
2023/07/14 13:37:21;;;;;;;;;;;27.90;42.20;;;;;;5003962;28;19929;-77
2023/07/14 13:39:54;;;;;;;;;;;27.90;41.40;;;;;;5002846;28;19929;-78
2023/07/14 13:42:23;;;;;;;;;;;28.00;41.20;;;;;;5004947;28;19929;-79
2023/07/14 13:44:50;;;;;;;;;;;28.10;40.90;;;;;;5003635;28;19930;-79
2023/07/14 13:47:19;;;;;;;;;;;28.10;40.90;;;;;;5005458;28;19929;-78
2023/07/14 13:49:46;;;;;;;;;;;28.20;41.80;;;;;;5001709;28;19929;-79
2023/07/14 13:52:16;;;;;;;;;;;28.20;42.60;;;;;;5006377;28;20363;-79
2023/07/14 13:54:44;;;;;;;;;;;28.30;41.80;;;;;;5008127;28;19940;-79
2023/07/14 13:57:11;;;;;;;;;;;28.30;41.30;;;;;;5009999;28;19952;-80
2023/07/14 13:59:39;;;;;;;;;;;28.30;41.10;;;;;;5008619;28;20368;-79
2023/07/14 14:02:18;;;;;;;;;;;28.40;41.10;;;;;;5013372;28;20020;-79
2023/07/14 14:04:46;;;;;;;;;;;28.40;41.50;;;;;;5007640;28;20394;-79
2023/07/14 14:07:13;;;;;;;;;;;28.40;41.30;;;;;;5007315;28;19934;-79
2023/07/14 14:09:39;;;;;;;;;;;28.50;41.90;;;;;;5010134;28;19933;-79
2023/07/14 14:12:06;;;;;;;;;;;28.50;41.70;;;;;;5006576;28;20303;-79
2023/07/14 14:14:33;;;;;;;;;;;28.60;41.00;;;;;;5010003;28;19983;-80
2023/07/14 14:17:00;;;;;;;;;;;28.60;41.40;;;;;;5006996;28;20662;-79
2023/07/14 14:19:27;;;;;;;;;;;28.60;42.00;;;;;;5005655;28;19956;-79
2023/07/14 14:21:58;;;;;;;;;;;28.70;41.80;;;;;;5009503;28;19929;-80